»·PEaware :: N1016S KSBP-KSBP

N1016S :: KSBP-KSBP

FLIGHT INFORMATION

Flight Status: Arrived
Operator: Privately registered:
United States
More flights under this callsign
Pilot: Philip R. (31433)
Aircraft: Unknown
(152)
More flights by this aircraft type
Origin: KSBP San Luis Co Regl
United States
Destination: KSBP San Luis Co Regl
United States
More flights between these airports :: More routes between these airports
Route: CLOSE TRAFFIC
File this flight plan on PilotEdge
Remarks:
Altitude:
(Current/Filed)
1,200ft
Speed:
(Current/Filed)
90kts
Departed: 09-Oct-21 08:13 PM
Arrived: 09-Oct-21 08:38 PM
Distance/Time
Traveled:
0nm/0:25
Distance/Time
To Go:
Arrived

Flight Plot

Page will automatically refresh every two minutes.

Flight plan parsing failed; only flown route is shown


Map Options




Map Legend


Flown Route
Filed Route
Departure Airport
Arrival Airport
Navaid (VOR, NDB)
Fix

Horizontal Profiles

Position Reports

Time Latitude Longitude Heading Altitude Ground
Speed
09-Oct-21 19:52 35.235861 -120.635445 31 206ft 0kts
09-Oct-21 19:53 35.235861 -120.635445 31 206ft 0kts
09-Oct-21 19:54 35.235861 -120.635445 31 206ft 0kts
09-Oct-21 19:55 35.235861 -120.635445 31 206ft 0kts
09-Oct-21 19:56 35.235861 -120.635445 31 206ft 0kts
09-Oct-21 19:57 35.235861 -120.635445 31 206ft 0kts
09-Oct-21 19:58 35.235861 -120.635445 31 206ft 0kts
09-Oct-21 19:59 35.235861 -120.635445 31 206ft 0kts
09-Oct-21 20:00 35.235861 -120.635445 31 206ft 0kts
09-Oct-21 20:01 35.235861 -120.635445 31 206ft 0kts
09-Oct-21 20:02 35.235861 -120.635445 31 206ft 0kts
09-Oct-21 20:03 35.235861 -120.635445 31 206ft 0kts
09-Oct-21 20:04 35.235861 -120.635445 31 206ft 0kts
09-Oct-21 20:05 35.235861 -120.635445 31 206ft 0kts
09-Oct-21 20:06 35.234788 -120.634678 121 210ft 8kts
09-Oct-21 20:07 35.233590 -120.632680 137 217ft 8kts
09-Oct-21 20:08 35.233550 -120.632635 125 217ft 0kts
09-Oct-21 20:09 35.233551 -120.632635 125 217ft 0kts
09-Oct-21 20:10 35.233323 -120.632457 190 218ft 9kts
09-Oct-21 20:11 35.233183 -120.633755 304 214ft 16kts
09-Oct-21 20:12 35.242954 -120.650827 306 603ft 70kts
09-Oct-21 20:13 35.242149 -120.667768 217 1269ft 71kts
09-Oct-21 20:14 35.227126 -120.665230 128 1430ft 66kts
09-Oct-21 20:15 35.215689 -120.648382 131 1402ft 62kts
09-Oct-21 20:16 35.208441 -120.633984 38 1322ft 57kts
09-Oct-21 20:17 35.218607 -120.619409 43 1249ft 56kts
09-Oct-21 20:18 35.231127 -120.630326 311 345ft 68kts
09-Oct-21 20:19 35.240249 -120.646322 303 286ft 81kts
09-Oct-21 20:20 35.249208 -120.667153 239 1103ft 69kts
09-Oct-21 20:21 35.235231 -120.681782 202 1267ft 66kts
09-Oct-21 20:22 35.222733 -120.669577 121 1417ft 62kts
09-Oct-21 20:23 35.213499 -120.651344 122 1529ft 66kts
09-Oct-21 20:24 35.201516 -120.634055 127 1661ft 68kts
09-Oct-21 20:25 35.200721 -120.615913 50 1711ft 58kts
09-Oct-21 20:26 35.211517 -120.601351 38 1567ft 61kts
09-Oct-21 20:27 35.223964 -120.617958 306 859ft 80kts
09-Oct-21 20:28 35.234535 -120.636173 301 214ft 51kts
09-Oct-21 20:29 35.242890 -120.650459 307 297ft 78kts
09-Oct-21 20:30 35.249551 -120.671303 207 1194ft 69kts
09-Oct-21 20:31 35.232716 -120.683374 174 1271ft 66kts
09-Oct-21 20:32 35.222069 -120.667128 119 1071ft 62kts
09-Oct-21 20:33 35.213324 -120.649342 122 1038ft 65kts
09-Oct-21 20:34 35.201887 -120.632540 114 1140ft 61kts
09-Oct-21 20:35 35.211716 -120.618319 40 1124ft 63kts
09-Oct-21 20:36 35.225540 -120.620334 306 734ft 73kts
09-Oct-21 20:37 35.234685 -120.636424 305 205ft 37kts
09-Oct-21 20:38 35.237494 -120.639870 33 194ft 0kts
09-Oct-21 20:39 35.237494 -120.639870 33 194ft 0kts
09-Oct-21 20:40 35.237494 -120.639870 33 194ft 0kts
09-Oct-21 20:41 35.237494 -120.639870 33 194ft 0kts
09-Oct-21 20:42 35.237494 -120.639870 33 194ft 0kts
09-Oct-21 20:43 35.238476 -120.639140 313 193ft 13kts

Navigation Log

Ident Type
Flight plan parsing failed, navigation log unavailable